createdAt,value
2018-02-10T00:02:20.229Z,97.30
2018-02-10T00:04:47.797Z,97.30
2018-02-10T00:07:15.359Z,97.30
2018-02-10T00:09:42.958Z,97.40
2018-02-10T00:12:10.550Z,97.40
2018-02-10T00:14:38.119Z,97.30
2018-02-10T00:17:05.683Z,97.30
2018-02-10T00:19:33.257Z,97.40
2018-02-10T00:22:01.576Z,97.50
2018-02-10T00:24:29.148Z,97.50
2018-02-10T00:26:57.473Z,97.40
2018-02-10T00:29:25.126Z,97.40
2018-02-10T00:31:53.476Z,97.40
2018-02-10T00:34:21.048Z,97.40
2018-02-10T00:36:48.603Z,97.30
2018-02-10T00:39:16.945Z,97.30
2018-02-10T00:41:44.497Z,97.30
2018-02-10T00:44:12.087Z,97.60
2018-02-10T00:46:39.649Z,97.30
2018-02-10T00:49:08.006Z,97.30
2018-02-10T00:51:36.007Z,97.30
2018-02-10T00:54:03.582Z,97.30
2018-02-10T00:56:31.144Z,97.30
2018-02-10T00:58:58.736Z,97.30
2018-02-10T01:01:26.288Z,97.30
2018-02-10T01:03:53.861Z,97.30
2018-02-10T01:06:21.712Z,97.30
2018-02-10T01:08:49.270Z,97.30
2018-02-10T01:11:16.841Z,97.40
2018-02-10T01:13:45.169Z,97.40
2018-02-10T01:16:12.741Z,97.40
2018-02-10T01:18:40.297Z,97.40
2018-02-10T01:21:08.637Z,97.40
2018-02-10T01:23:36.192Z,97.40
2018-02-10T01:26:04.537Z,97.40
2018-02-10T01:28:32.096Z,97.40
2018-02-10T01:30:59.676Z,97.50
2018-02-10T01:33:27.229Z,97.50
2018-02-10T01:35:54.804Z,97.50
2018-02-10T01:38:22.364Z,97.60
2018-02-10T01:40:49.961Z,97.50
2018-02-10T01:43:17.533Z,97.60
2018-02-10T01:45:45.108Z,97.50
2018-02-10T01:48:12.691Z,97.60
2018-02-10T01:50:40.255Z,97.50
2018-02-10T01:53:07.838Z,97.60
2018-02-10T01:55:35.392Z,97.70
2018-02-10T01:58:03.738Z,98.00
2018-02-10T02:00:31.304Z,97.80
2018-02-10T02:02:58.880Z,97.80
2018-02-10T02:05:27.192Z,97.80
2018-02-10T02:07:54.770Z,97.80
2018-02-10T02:10:22.319Z,97.90
2018-02-10T02:12:49.888Z,97.80
2018-02-10T02:15:17.449Z,97.80
2018-02-10T02:17:45.048Z,97.90
2018-02-10T02:20:12.611Z,98.00
2018-02-10T02:22:40.200Z,97.90
2018-02-10T02:25:07.760Z,98.00
2018-02-10T02:27:35.329Z,98.10
2018-02-10T02:30:03.677Z,98.20
2018-02-10T02:32:31.239Z,98.50
2018-02-10T02:34:58.818Z,98.20
2018-02-10T02:37:26.374Z,98.30
2018-02-10T02:39:54.733Z,98.30
2018-02-10T02:42:22.291Z,98.30
2018-02-10T02:44:50.557Z,98.40
2018-02-10T02:47:18.118Z,98.40
2018-02-10T02:49:45.689Z,98.40
2018-02-10T02:52:13.252Z,98.40
2018-02-10T02:54:40.820Z,98.40
2018-02-10T02:57:08.368Z,98.40
2018-02-10T02:59:35.943Z,98.40
2018-02-10T03:02:03.492Z,98.40
2018-02-10T03:04:31.084Z,98.40
2018-02-10T03:06:58.643Z,98.40
2018-02-10T03:09:26.232Z,98.40
2018-02-10T03:11:53.775Z,98.50
2018-02-10T03:14:21.323Z,98.50
2018-02-10T03:16:48.896Z,98.50
2018-02-10T03:19:16.462Z,98.50
2018-02-10T03:21:44.043Z,98.60
2018-02-10T03:24:11.591Z,98.60
2018-02-10T03:26:39.155Z,98.60
2018-02-10T03:29:06.712Z,98.50
2018-02-10T03:31:34.279Z,98.60
2018-02-10T03:34:01.826Z,98.60
2018-02-10T03:36:29.403Z,98.60
2018-02-10T03:38:57.023Z,98.60
2018-02-10T03:41:25.514Z,98.60
2018-02-10T03:43:53.098Z,98.60
2018-02-10T03:46:20.687Z,98.60
2018-02-10T03:48:49.004Z,98.50
2018-02-10T03:51:17.314Z,98.50
2018-02-10T03:53:44.909Z,98.60
2018-02-10T03:56:12.455Z,98.50
2018-02-10T03:58:40.796Z,98.90
2018-02-10T04:01:08.351Z,98.60
2018-02-10T04:03:36.734Z,98.60
2018-02-10T04:06:04.287Z,98.60
2018-02-10T04:08:31.858Z,98.70
2018-02-10T04:10:59.407Z,98.60
2018-02-10T04:13:27.739Z,98.60
2018-02-10T04:15:55.288Z,98.50
2018-02-10T04:18:23.619Z,98.60
2018-02-10T04:20:51.172Z,98.60
2018-02-10T04:23:19.519Z,98.60
2018-02-10T04:25:47.072Z,98.60
2018-02-10T04:28:14.659Z,98.60
2018-02-10T04:30:42.243Z,98.60
2018-02-10T04:33:09.788Z,98.60
2018-02-10T04:35:37.359Z,98.60
2018-02-10T04:38:04.911Z,98.50
2018-02-10T04:40:32.474Z,98.50
2018-02-10T04:43:00.787Z,98.60
2018-02-10T04:45:28.361Z,98.50
2018-02-10T04:47:55.935Z,98.50
2018-02-10T04:50:24.283Z,98.40
2018-02-10T04:52:51.855Z,98.40
2018-02-10T04:55:19.422Z,98.50
2018-02-10T04:57:46.967Z,98.50
2018-02-10T05:00:14.543Z,98.50
2018-02-10T05:02:42.096Z,98.40
2018-02-10T05:05:09.682Z,98.50
2018-02-10T05:07:37.231Z,98.50
2018-02-10T05:10:05.564Z,98.50
2018-02-10T05:12:33.125Z,98.50
2018-02-10T05:15:00.686Z,98.40
2018-02-10T05:17:28.236Z,98.40
2018-02-10T05:19:55.855Z,98.50
2018-02-10T05:22:23.399Z,98.50
2018-02-10T05:24:50.935Z,98.40
2018-02-10T05:27:19.314Z,98.70
2018-02-10T05:29:46.906Z,98.70
2018-02-10T05:32:14.481Z,98.60
2018-02-10T05:34:42.035Z,98.60
2018-02-10T05:37:09.603Z,98.70
2018-02-10T05:39:37.156Z,98.70
2018-02-10T05:42:05.503Z,98.80
2018-02-10T05:44:33.047Z,98.80
2018-02-10T05:47:00.624Z,98.70
2018-02-10T05:49:28.944Z,98.60
2018-02-10T05:51:56.509Z,98.60
2018-02-10T05:54:24.825Z,98.70
2018-02-10T05:56:53.184Z,98.70
2018-02-10T05:59:20.799Z,98.70
2018-02-10T06:01:48.327Z,98.70
2018-02-10T06:04:15.890Z,98.60
2018-02-10T06:06:43.443Z,98.70
2018-02-10T06:09:11.011Z,98.70
2018-02-10T06:11:38.559Z,98.80
2018-02-10T06:14:06.126Z,98.80
2018-02-10T06:16:33.668Z,98.80
2018-02-10T06:19:01.245Z,98.80
2018-02-10T06:21:28.793Z,98.80
2018-02-10T06:23:56.359Z,98.70
2018-02-10T06:26:23.919Z,98.80
2018-02-10T06:28:52.261Z,98.90
2018-02-10T06:31:19.824Z,98.80
2018-02-10T06:33:47.398Z,98.80
2018-02-10T06:36:15.736Z,98.80
2018-02-10T06:38:43.297Z,98.80
2018-02-10T06:41:10.894Z,98.80
2018-02-10T06:43:38.452Z,98.80
2018-02-10T06:46:06.793Z,98.80
2018-02-10T06:48:35.111Z,98.70
2018-02-10T06:51:02.684Z,98.70
2018-02-10T06:53:30.231Z,98.70
2018-02-10T06:55:58.568Z,98.80
2018-02-10T06:58:26.120Z,98.80
2018-02-10T07:00:53.712Z,98.80
2018-02-10T07:03:21.265Z,98.80
2018-02-10T07:05:48.830Z,98.80
2018-02-10T07:08:16.386Z,98.80
2018-02-10T07:10:43.979Z,98.80
2018-02-10T07:13:11.532Z,98.80
2018-02-10T07:15:39.136Z,98.80
2018-02-10T07:18:06.707Z,99.10
2018-02-10T07:20:34.258Z,98.80
2018-02-10T07:23:02.599Z,98.60
2018-02-10T07:25:30.142Z,98.60
2018-02-10T07:27:58.483Z,98.90
2018-02-10T07:30:26.050Z,98.60
2018-02-10T07:32:54.379Z,98.40
2018-02-10T07:35:21.935Z,98.40
2018-02-10T07:37:49.513Z,98.40
2018-02-10T07:40:17.163Z,98.30
2018-02-10T07:42:44.737Z,98.30
2018-02-10T07:45:12.287Z,98.30
2018-02-10T07:47:39.866Z,98.20
2018-02-10T07:50:07.419Z,98.20
2018-02-10T07:52:35.754Z,98.00
2018-02-10T07:55:03.324Z,98.00
2018-02-10T07:57:30.896Z,98.00
2018-02-10T07:59:59.228Z,97.80
2018-02-10T08:02:26.778Z,97.80
2018-02-10T08:04:55.114Z,97.90
2018-02-10T08:07:22.666Z,97.90
2018-02-10T08:09:50.266Z,98.00
2018-02-10T08:12:18.586Z,97.40
2018-02-10T08:14:46.148Z,97.70
2018-02-10T08:17:13.694Z,97.30
2018-02-10T08:19:41.259Z,97.20
2018-02-10T08:22:08.815Z,97.10
2018-02-10T08:24:36.382Z,97.10
2018-02-10T08:27:04.699Z,97.00
2018-02-10T08:29:32.250Z,97.00
2018-02-10T08:31:59.819Z,97.10
2018-02-10T08:34:27.371Z,96.90
2018-02-10T08:36:54.938Z,96.70
2018-02-10T08:39:22.480Z,96.70
2018-02-10T08:41:50.056Z,96.60
2018-02-10T08:44:17.603Z,96.60
2018-02-10T08:46:45.191Z,96.50
2018-02-10T08:49:12.741Z,96.50
2018-02-10T08:51:41.100Z,96.50
2018-02-10T08:54:08.647Z,96.50
2018-02-10T08:56:36.211Z,96.70
2018-02-10T08:59:04.527Z,96.70
2018-02-10T09:01:32.146Z,96.70
2018-02-10T09:03:59.679Z,96.60
2018-02-10T09:06:28.011Z,96.50
2018-02-10T09:08:55.563Z,96.50
2018-02-10T09:11:23.919Z,96.80
2018-02-10T09:13:51.464Z,96.50
2018-02-10T09:16:19.036Z,96.50
2018-02-10T09:18:47.374Z,96.40
2018-02-10T09:21:14.922Z,96.40
2018-02-10T09:23:43.260Z,96.10
2018-02-10T09:26:10.832Z,96.10
2018-02-10T09:28:38.427Z,96.30
2018-02-10T09:31:05.995Z,96.00
2018-02-10T09:33:33.569Z,95.90
2018-02-10T09:36:01.142Z,96.00
2018-02-10T09:38:29.470Z,96.00
2018-02-10T09:40:57.022Z,95.90
2018-02-10T09:43:25.503Z,95.90
2018-02-10T09:45:53.099Z,95.80
2018-02-10T09:48:21.451Z,95.50
2018-02-10T09:50:49.000Z,95.50
2018-02-10T09:53:17.345Z,95.60
2018-02-10T09:55:44.939Z,95.60
2018-02-10T09:58:12.521Z,95.40
2018-02-10T10:00:40.067Z,95.40
2018-02-10T10:03:08.420Z,94.80
2018-02-10T10:05:35.963Z,94.70
2018-02-10T10:08:03.512Z,94.80
2018-02-10T10:10:31.071Z,94.90
2018-02-10T10:12:58.625Z,94.70
2018-02-10T10:15:27.117Z,95.00
2018-02-10T10:17:55.443Z,94.50
2018-02-10T10:20:23.006Z,94.50
2018-02-10T10:22:50.579Z,94.30
2018-02-10T10:25:18.912Z,94.30
2018-02-10T10:27:46.464Z,94.30
2018-02-10T10:30:14.805Z,94.20
2018-02-10T10:32:42.347Z,94.20
2018-02-10T10:35:10.714Z,94.60
2018-02-10T10:37:38.270Z,94.60
2018-02-10T10:40:05.832Z,94.50
2018-02-10T10:42:33.409Z,94.30
2018-02-10T10:45:01.715Z,94.40
2018-02-10T10:47:29.283Z,94.10
2018-02-10T10:49:56.823Z,94.00
2018-02-10T10:52:24.391Z,94.10
2018-02-10T10:54:51.946Z,94.10
2018-02-10T10:57:20.328Z,94.10
2018-02-10T10:59:47.848Z,94.10
2018-02-10T11:02:15.432Z,94.40
2018-02-10T11:04:42.984Z,94.40
2018-02-10T11:07:11.334Z,94.30
2018-02-10T11:09:38.895Z,94.30
2018-02-10T11:12:06.458Z,94.20
2018-02-10T11:14:34.780Z,94.20
2018-02-10T11:17:02.343Z,94.10
2018-02-10T11:19:30.667Z,94.30
2018-02-10T11:21:58.254Z,94.20
2018-02-10T11:24:25.797Z,94.00
2018-02-10T11:26:53.348Z,94.10
2018-02-10T11:29:21.676Z,93.90
2018-02-10T11:31:49.220Z,93.90
2018-02-10T11:34:16.775Z,93.60
2018-02-10T11:36:45.087Z,93.40
2018-02-10T11:39:12.651Z,93.30
2018-02-10T11:41:40.985Z,93.30
2018-02-10T11:44:08.721Z,93.50
2018-02-10T11:46:36.263Z,93.50
2018-02-10T11:49:03.888Z,93.10
2018-02-10T11:51:31.404Z,93.00
2018-02-10T11:53:59.735Z,92.20
2018-02-10T11:56:27.300Z,92.20
2018-02-10T11:58:54.887Z,92.10
2018-02-10T12:01:23.757Z,91.80
2018-02-10T12:03:51.389Z,91.70
2018-02-10T12:06:19.330Z,92.00
2018-02-10T12:08:47.019Z,92.00
2018-02-10T12:11:14.592Z,92.30
2018-02-10T12:13:42.293Z,92.50
2018-02-10T12:16:09.856Z,92.20
2018-02-10T12:18:37.399Z,92.10
2018-02-10T12:21:04.962Z,92.10
2018-02-10T12:23:32.498Z,91.70
2018-02-10T12:26:00.061Z,91.60
2018-02-10T12:28:27.623Z,92.10
2018-02-10T12:30:55.942Z,91.70
2018-02-10T12:33:24.248Z,91.40
2018-02-10T12:35:51.823Z,91.30
2018-02-10T12:38:19.375Z,91.10
2018-02-10T12:40:46.971Z,91.00
2018-02-10T12:43:14.518Z,90.80
2018-02-10T12:45:42.064Z,90.90
2018-02-10T12:48:19.820Z,91.20
2018-02-10T12:50:47.360Z,90.80
2018-02-10T12:53:15.683Z,90.40
2018-02-10T12:55:43.229Z,90.40
2018-02-10T12:58:10.795Z,90.00
2018-02-10T13:00:38.362Z,90.00
2018-02-10T13:03:05.930Z,90.30
2018-02-10T13:05:33.484Z,90.00
2018-02-10T13:08:01.814Z,90.00
2018-02-10T13:10:29.632Z,90.00
2018-02-10T13:12:57.222Z,90.20
2018-02-10T13:15:24.963Z,90.30
2018-02-10T13:17:52.546Z,90.40
2018-02-10T13:20:20.091Z,90.40
2018-02-10T13:22:47.647Z,90.20
2018-02-10T13:25:15.182Z,90.00
2018-02-10T13:27:42.742Z,89.40
2018-02-10T13:30:10.302Z,87.30
2018-02-10T13:32:37.851Z,86.90
2018-02-10T13:35:05.415Z,86.90
2018-02-10T13:37:33.732Z,86.60
2018-02-10T13:40:01.299Z,86.50
2018-02-10T13:42:29.611Z,87.60
2018-02-10T13:44:57.942Z,86.50
2018-02-10T13:47:25.474Z,86.60
2018-02-10T13:49:53.085Z,86.60
2018-02-10T13:52:21.432Z,87.00
2018-02-10T13:54:48.997Z,87.00
2018-02-10T13:57:16.540Z,88.20
2018-02-10T13:59:44.863Z,89.80
2018-02-10T14:02:13.229Z,89.80
2018-02-10T14:04:40.787Z,89.40
2018-02-10T14:07:08.328Z,89.60
2018-02-10T14:09:35.891Z,89.90
2018-02-10T14:12:04.209Z,90.00
2018-02-10T14:14:32.545Z,89.70
2018-02-10T14:17:00.098Z,89.60
2018-02-10T14:19:28.419Z,90.10
2018-02-10T14:21:55.962Z,90.10
2018-02-10T14:24:23.499Z,90.20
2018-02-10T14:26:51.828Z,91.00
2018-02-10T14:29:19.437Z,90.90
2018-02-10T14:31:47.759Z,91.90
2018-02-10T14:34:15.309Z,91.60
2018-02-10T14:36:42.867Z,91.80
2018-02-10T14:39:10.417Z,92.00
2018-02-10T14:41:37.982Z,92.10
2018-02-10T14:44:05.546Z,92.30
2018-02-10T14:46:33.103Z,92.50
2018-02-10T14:49:00.652Z,92.80
2018-02-10T14:51:28.219Z,93.10
2018-02-10T14:53:56.527Z,93.30
2018-02-10T14:56:24.110Z,93.30
2018-02-10T14:58:52.419Z,93.40
2018-02-10T15:01:20.015Z,93.40
2018-02-10T15:03:48.171Z,93.50
2018-02-10T15:06:15.847Z,93.40
2018-02-10T15:08:43.394Z,93.40
2018-02-10T15:11:11.209Z,93.50
2018-02-10T15:13:38.966Z,93.40
2018-02-10T15:16:06.512Z,93.60
2018-02-10T15:18:34.839Z,93.90
2018-02-10T15:21:02.419Z,93.90
2018-02-10T15:23:29.984Z,94.00
2018-02-10T15:25:58.297Z,94.20
2018-02-10T15:28:26.641Z,94.30
2018-02-10T15:31:06.155Z,94.30
2018-02-10T15:33:46.152Z,94.40
2018-02-10T15:36:13.701Z,94.40
2018-02-10T15:38:41.267Z,94.60
2018-02-10T15:41:08.804Z,94.80
2018-02-10T15:43:36.364Z,95.00
2018-02-10T15:46:04.686Z,95.20
2018-02-10T15:48:32.260Z,95.20
2018-02-10T15:51:00.589Z,95.50
2018-02-10T15:53:28.262Z,95.40
2018-02-10T15:55:55.805Z,95.40
2018-02-10T15:58:23.360Z,95.50
2018-02-10T16:00:50.935Z,95.60
2018-02-10T16:03:18.498Z,95.70
2018-02-10T16:05:46.077Z,95.70
2018-02-10T16:08:13.624Z,95.90
2018-02-10T16:10:41.200Z,95.90
2018-02-10T16:13:08.751Z,96.20
2018-02-10T16:15:36.331Z,96.10
2018-02-10T16:18:03.979Z,96.30
2018-02-10T16:20:31.560Z,96.40
2018-02-10T16:22:59.102Z,96.50
2018-02-10T16:25:26.680Z,96.40
2018-02-10T16:27:54.232Z,96.70
2018-02-10T16:30:22.543Z,96.80
2018-02-10T16:32:50.151Z,96.80
2018-02-10T16:35:17.713Z,96.90
2018-02-10T16:37:45.292Z,96.90
2018-02-10T16:40:12.856Z,97.00
2018-02-10T16:42:41.193Z,97.00
2018-02-10T16:45:08.744Z,97.00
2018-02-10T16:47:37.083Z,97.10
2018-02-10T16:50:04.670Z,97.10
2018-02-10T16:52:32.242Z,97.10
2018-02-10T16:54:59.909Z,97.20
2018-02-10T16:57:27.601Z,97.30
2018-02-10T16:59:55.914Z,97.40
2018-02-10T17:02:23.488Z,97.40
2018-02-10T17:04:51.807Z,97.50
2018-02-10T17:07:19.379Z,97.40
2018-02-10T17:09:46.936Z,97.50
2018-02-10T17:12:14.532Z,97.40
2018-02-10T17:14:42.221Z,97.50
2018-02-10T17:17:09.804Z,97.50
2018-02-10T17:19:38.770Z,97.60
2018-02-10T17:22:06.383Z,97.60
2018-02-10T17:24:34.012Z,97.60
2018-02-10T17:27:01.568Z,97.60
2018-02-10T17:29:30.068Z,97.70
2018-02-10T17:31:57.635Z,97.70
2018-02-10T17:34:25.236Z,97.80
2018-02-10T17:36:52.782Z,97.90
2018-02-10T17:39:20.352Z,98.00
2018-02-10T17:41:47.895Z,97.90
2018-02-10T17:44:16.235Z,97.90
2018-02-10T17:46:43.788Z,97.80
2018-02-10T17:49:12.154Z,97.80
2018-02-10T17:51:39.703Z,97.80
2018-02-10T17:54:12.444Z,97.80
2018-02-10T17:56:40.191Z,97.80
2018-02-10T17:59:07.788Z,97.90
2018-02-10T18:01:35.335Z,97.80
2018-02-10T18:04:02.910Z,97.80
2018-02-10T18:06:30.458Z,97.80
2018-02-10T18:08:58.015Z,97.80
2018-02-10T18:11:25.589Z,97.90
2018-02-10T18:13:53.896Z,98.00
2018-02-10T18:16:21.465Z,98.00
2018-02-10T18:18:49.780Z,97.90
2018-02-10T18:21:18.139Z,97.90
2018-02-10T18:23:45.682Z,97.90
2018-02-10T18:26:13.289Z,98.00
2018-02-10T18:28:40.848Z,98.10
2018-02-10T18:31:08.408Z,98.10
2018-02-10T18:33:36.735Z,98.10
2018-02-10T18:36:04.305Z,98.10
2018-02-10T18:38:31.857Z,98.20
2018-02-10T18:40:59.436Z,98.10
2018-02-10T18:43:27.007Z,98.10
2018-02-10T18:45:54.551Z,98.10
2018-02-10T18:48:22.120Z,98.10
2018-02-10T18:50:50.435Z,98.00
2018-02-10T18:53:18.016Z,98.00
2018-02-10T18:55:45.555Z,98.00
2018-02-10T18:58:14.103Z,98.00
2018-02-10T19:00:41.646Z,98.00
2018-02-10T19:03:09.216Z,97.90
2018-02-10T19:05:36.778Z,97.90
2018-02-10T19:08:04.531Z,97.90
2018-02-10T19:10:32.852Z,97.90
2018-02-10T19:13:00.426Z,97.90
2018-02-10T19:15:27.987Z,97.90
2018-02-10T19:17:56.183Z,97.80
2018-02-10T19:20:23.735Z,97.80
2018-02-10T19:22:51.288Z,97.80
2018-02-10T19:25:18.876Z,97.80
2018-02-10T19:27:46.429Z,97.70
2018-02-10T19:30:14.767Z,97.60
2018-02-10T19:32:42.311Z,97.60
2018-02-10T19:35:10.643Z,97.40
2018-02-10T19:37:38.203Z,97.40
2018-02-10T19:40:06.540Z,97.30
2018-02-10T19:42:34.165Z,97.30
2018-02-10T19:45:01.880Z,97.30
2018-02-10T19:47:30.197Z,97.20
2018-02-10T19:49:57.780Z,97.20
2018-02-10T19:52:26.096Z,97.20
2018-02-10T19:54:53.702Z,97.10
2018-02-10T19:57:21.292Z,97.20
2018-02-10T19:59:48.946Z,97.20
2018-02-10T20:02:16.515Z,97.20
2018-02-10T20:04:45.092Z,97.20
2018-02-10T20:07:12.809Z,97.20
2018-02-10T20:09:41.117Z,97.30
2018-02-10T20:12:09.120Z,97.30
2018-02-10T20:14:36.772Z,97.10
2018-02-10T20:17:04.537Z,97.20
2018-02-10T20:19:32.100Z,97.20
2018-02-10T20:21:59.676Z,97.10
2018-02-10T20:24:27.222Z,97.10
2018-02-10T20:26:55.569Z,97.10
2018-02-10T20:29:23.124Z,97.00
2018-02-10T20:31:50.712Z,96.90
2018-02-10T20:34:19.020Z,96.80
2018-02-10T20:36:46.564Z,96.80
2018-02-10T20:39:14.140Z,96.80
2018-02-10T20:41:41.685Z,96.80
2018-02-10T20:44:09.253Z,96.80
2018-02-10T20:46:36.804Z,96.70
2018-02-10T20:49:04.373Z,96.60
2018-02-10T20:51:31.930Z,96.90
2018-02-10T20:53:59.499Z,96.60
2018-02-10T20:56:27.853Z,96.50
2018-02-10T20:58:55.462Z,96.60
2018-02-10T21:01:23.790Z,96.50
2018-02-10T21:03:51.331Z,96.50
2018-02-10T21:06:18.908Z,96.50
2018-02-10T21:08:46.455Z,96.50
2018-02-10T21:11:14.048Z,96.60
2018-02-10T21:13:41.591Z,96.50
2018-02-10T21:16:09.156Z,96.50
2018-02-10T21:18:36.713Z,96.50
2018-02-10T21:21:04.283Z,96.40
2018-02-10T21:23:31.827Z,96.40
2018-02-10T21:26:00.152Z,96.20
2018-02-10T21:28:27.701Z,96.20
2018-02-10T21:30:56.062Z,96.30
2018-02-10T21:33:23.613Z,96.30
2018-02-10T21:35:51.162Z,96.30
2018-02-10T21:38:19.495Z,96.40
2018-02-10T21:40:47.927Z,96.20
2018-02-10T21:43:15.505Z,96.20
2018-02-10T21:45:43.143Z,96.10
2018-02-10T21:48:10.725Z,96.10
2018-02-10T21:50:38.367Z,96.10
2018-02-10T21:53:05.947Z,96.00
2018-02-10T21:55:33.539Z,96.10
2018-02-10T21:58:01.261Z,96.00
2018-02-10T22:00:29.292Z,96.00
2018-02-10T22:02:56.957Z,95.90
2018-02-10T22:05:24.500Z,96.00
2018-02-10T22:07:52.088Z,96.10
2018-02-10T22:10:19.636Z,96.00
2018-02-10T22:12:47.949Z,96.20
2018-02-10T22:15:16.276Z,95.90
2018-02-10T22:17:43.853Z,95.90
2018-02-10T22:20:11.420Z,96.00
2018-02-10T22:22:39.727Z,95.90
2018-02-10T22:25:07.287Z,95.90
2018-02-10T22:27:34.824Z,95.90
2018-02-10T22:30:02.395Z,95.90
2018-02-10T22:32:30.021Z,95.90
2018-02-10T22:34:57.644Z,96.00
2018-02-10T22:37:25.984Z,96.00
2018-02-10T22:39:53.564Z,96.00
2018-02-10T22:42:21.188Z,96.00
2018-02-10T22:44:48.861Z,95.90
2018-02-10T22:47:17.276Z,95.90
2018-02-10T22:49:44.905Z,95.90
2018-02-10T22:52:12.476Z,96.00
2018-02-10T22:54:40.812Z,96.00
2018-02-10T22:57:08.379Z,96.00
2018-02-10T22:59:35.931Z,96.00
2018-02-10T23:02:04.880Z,96.00
2018-02-10T23:04:32.575Z,96.00
2018-02-10T23:07:00.132Z,96.00
2018-02-10T23:09:28.598Z,95.90
2018-02-10T23:11:56.222Z,95.90
2018-02-10T23:14:24.232Z,95.90
2018-02-10T23:16:52.091Z,96.00
2018-02-10T23:19:19.639Z,95.90
2018-02-10T23:21:47.399Z,96.00
2018-02-10T23:24:14.997Z,96.10
2018-02-10T23:26:42.543Z,96.00
2018-02-10T23:29:10.895Z,96.00
2018-02-10T23:31:38.434Z,96.00
2018-02-10T23:34:06.175Z,96.00
2018-02-10T23:36:35.620Z,96.20
2018-02-10T23:39:03.187Z,96.10
2018-02-10T23:41:30.731Z,96.20
2018-02-10T23:43:58.320Z,96.10
2018-02-10T23:46:25.867Z,96.10
2018-02-10T23:48:53.500Z,96.10
2018-02-10T23:51:21.055Z,96.00
2018-02-10T23:53:49.388Z,96.50
2018-02-10T23:56:16.951Z,96.10
2018-02-10T23:58:45.531Z,96.20
